Time;durP1;ratioP1;P1;durP2;ratioP2;P2;SDS_P1;SDS_P2;PMS_P1;PMS_P2;Temp;Humidity;BMP_temperature;BMP_pressure;BME280_temperature;BME280_humidity;BME280_pressure;Samples;Min_cycle;Max_cycle;Signal;HPM_P1;HPM_P2
2021/10/04 00:01:10;;;;;;;9.90;1.80;;;13.80;99.90;;;;;;6192647;23;20007;-90
2021/10/04 00:03:37;;;;;;;11.80;1.75;;;13.80;99.90;;;;;;6192798;23;19997;-89
2021/10/04 00:06:03;;;;;;;9.80;1.45;;;13.80;99.90;;;;;;6162946;23;20005;-89
2021/10/04 00:08:29;;;;;;;9.80;2.00;;;13.80;99.90;;;;;;6181659;23;20005;-89
2021/10/04 00:10:54;;;;;;;5.57;1.30;;;13.80;99.90;;;;;;6181856;23;20073;-88
2021/10/04 00:13:21;;;;;;;9.95;1.33;;;13.80;99.90;;;;;;6156974;23;20494;-89
2021/10/04 00:15:47;;;;;;;13.73;1.88;;;13.70;99.90;;;;;;6182030;23;20005;-89
2021/10/04 00:18:13;;;;;;;10.32;1.58;;;13.70;99.90;;;;;;6183654;23;20001;-89
2021/10/04 00:20:38;;;;;;;9.52;1.73;;;13.60;99.90;;;;;;6190791;23;20063;-90
2021/10/04 00:23:05;;;;;;;9.27;2.05;;;13.60;99.90;;;;;;6168306;23;20012;-89
2021/10/04 00:25:31;;;;;;;12.00;2.05;;;13.50;99.90;;;;;;6194814;23;20016;-89
2021/10/04 00:27:56;;;;;;;10.38;1.85;;;13.60;99.90;;;;;;6194557;23;20166;-89
2021/10/04 00:30:22;;;;;;;11.13;1.80;;;13.60;99.90;;;;;;6167941;23;20254;-89
2021/10/04 00:32:50;;;;;;;9.35;1.85;;;13.60;99.90;;;;;;6194713;23;19993;-89
2021/10/04 00:35:19;;;;;;;9.35;2.00;;;13.70;99.90;;;;;;6194293;23;20032;-90
2021/10/04 00:37:45;;;;;;;9.85;1.83;;;13.70;99.90;;;;;;6194645;23;19993;-90
2021/10/04 00:40:18;;;;;;;11.60;2.00;;;13.80;99.90;;;;;;6194405;23;20188;-89
2021/10/04 00:42:44;;;;;;;6.85;1.20;;;13.80;99.90;;;;;;6168290;23;20064;-89
2021/10/04 00:45:10;;;;;;;8.02;1.42;;;13.80;99.90;;;;;;6195250;23;20173;-89
2021/10/04 00:47:38;;;;;;;9.07;1.50;;;13.80;99.90;;;;;;6191395;23;20029;-90
2021/10/04 00:50:06;;;;;;;16.42;2.17;;;13.80;99.90;;;;;;6166980;23;20013;-90
2021/10/04 00:52:32;;;;;;;13.27;2.05;;;13.80;99.90;;;;;;6194067;23;19996;-90
2021/10/04 00:54:57;;;;;;;9.48;1.60;;;13.70;99.90;;;;;;6168229;23;20056;-90
2021/10/04 00:57:23;;;;;;;6.95;1.65;;;13.70;99.90;;;;;;6194386;23;20292;-90
2021/10/04 00:59:49;;;;;;;13.88;2.08;;;13.60;99.90;;;;;;6194433;23;20068;-90
2021/10/04 01:02:15;;;;;;;13.43;1.95;;;13.60;99.90;;;;;;6168158;23;20005;-90
2021/10/04 01:04:43;;;;;;;14.20;2.35;;;13.60;99.90;;;;;;6194507;23;20052;-90
2021/10/04 01:07:10;;;;;;;8.05;2.30;;;13.60;99.90;;;;;;6167993;23;20281;-90
2021/10/04 01:09:36;;;;;;;13.35;2.30;;;13.50;99.90;;;;;;6194234;23;20316;-90
2021/10/04 01:12:02;;;;;;;14.13;2.08;;;13.50;99.90;;;;;;6168031;23;20001;-90
2021/10/04 01:14:28;;;;;;;12.73;2.25;;;13.40;99.90;;;;;;6168207;23;19996;-90
2021/10/04 01:16:54;;;;;;;7.78;1.58;;;13.50;99.90;;;;;;6194361;23;20053;-90
2021/10/04 01:19:20;;;;;;;12.57;2.08;;;13.40;99.90;;;;;;6194445;23;20235;-90
2021/10/04 01:21:46;;;;;;;9.20;1.40;;;13.40;99.90;;;;;;6193859;23;19993;-90
2021/10/04 01:24:13;;;;;;;13.15;2.20;;;13.40;99.90;;;;;;6194351;23;20016;-91
2021/10/04 01:26:39;;;;;;;10.75;2.30;;;13.40;99.90;;;;;;6194110;23;19993;-90
2021/10/04 01:29:06;;;;;;;15.73;2.30;;;13.40;99.90;;;;;;6167747;23;20021;-90
2021/10/04 01:31:32;;;;;;;7.93;1.58;;;13.30;99.90;;;;;;6194223;23;20170;-90
2021/10/04 01:33:59;;;;;;;10.40;1.52;;;13.20;99.90;;;;;;6193839;23;20224;-90
2021/10/04 01:36:27;;;;;;;11.00;1.65;;;13.20;99.90;;;;;;6194067;23;20166;-90
2021/10/04 01:38:55;;;;;;;11.43;1.50;;;13.20;99.90;;;;;;6193913;23;19999;-91
2021/10/04 01:41:21;;;;;;;10.35;1.67;;;13.20;99.90;;;;;;6194661;23;19993;-90
2021/10/04 01:43:47;;;;;;;8.30;1.48;;;13.20;99.90;;;;;;6194129;23;19992;-90
2021/10/04 01:46:12;;;;;;;13.85;2.17;;;13.10;99.90;;;;;;6167748;23;20000;-91
2021/10/04 01:48:38;;;;;;;9.00;1.42;;;13.10;99.90;;;;;;6194003;23;20001;-91
2021/10/04 01:51:04;;;;;;;8.77;1.60;;;13.10;99.90;;;;;;6193848;23;20289;-91
2021/10/04 01:53:30;;;;;;;14.00;1.42;;;13.10;99.90;;;;;;6193959;23;19993;-90
2021/10/04 01:55:56;;;;;;;8.80;1.75;;;13.00;99.90;;;;;;6167687;23;20281;-91
2021/10/04 01:58:22;;;;;;;13.98;1.95;;;13.00;99.90;;;;;;6167763;23;20189;-91
2021/10/04 02:00:49;;;;;;;14.00;2.10;;;13.00;99.90;;;;;;6193729;23;20060;-91
2021/10/04 02:03:15;;;;;;;12.80;1.63;;;13.00;99.90;;;;;;6167175;23;20088;-91
2021/10/04 02:05:41;;;;;;;10.50;1.77;;;13.00;99.90;;;;;;6167745;23;20028;-91
2021/10/04 02:08:07;;;;;;;7.80;1.27;;;13.10;99.90;;;;;;6193781;23;19989;-91
2021/10/04 02:10:37;;;;;;;8.73;1.35;;;13.10;99.90;;;;;;6167577;23;20370;-91
2021/10/04 02:13:05;;;;;;;17.00;1.80;;;13.10;99.90;;;;;;6193736;23;19996;-91
2021/10/04 02:15:32;;;;;;;9.38;1.45;;;13.10;99.90;;;;;;6167311;23;20021;-91
2021/10/04 02:17:58;;;;;;;8.05;1.70;;;13.10;99.90;;;;;;6167560;23;20027;-91
2021/10/04 02:20:27;;;;;;;8.93;1.98;;;13.10;99.90;;;;;;6193510;23;20013;-91
2021/10/04 02:22:53;;;;;;;10.77;1.60;;;13.10;99.90;;;;;;6193807;23;20296;-91
2021/10/04 02:25:20;;;;;;;9.85;1.60;;;13.10;99.90;;;;;;6167319;23;20016;-92
2021/10/04 02:27:46;;;;;;;6.68;1.27;;;13.10;99.90;;;;;;6193848;23;19997;-91
2021/10/04 02:30:19;;;;;;;7.65;1.10;;;13.10;99.90;;;;;;6193499;23;20108;-91
2021/10/04 02:32:45;;;;;;;10.55;2.83;;;13.10;99.90;;;;;;6193800;23;19997;-91
2021/10/04 02:35:11;;;;;;;11.70;1.70;;;13.10;99.90;;;;;;6191774;23;19989;-91
2021/10/04 02:37:37;;;;;;;4.82;1.10;;;13.00;99.90;;;;;;6193553;23;20016;-92
2021/10/04 02:40:05;;;;;;;7.50;1.20;;;13.00;99.90;;;;;;6193624;23;19993;-90
2021/10/04 02:42:31;;;;;;;7.13;1.58;;;13.10;99.90;;;;;;6167415;23;20088;-92
2021/10/04 02:44:56;;;;;;;7.18;0.90;;;13.00;99.90;;;;;;6193793;23;19997;-92
2021/10/04 02:47:22;;;;;;;8.05;1.50;;;13.00;99.90;;;;;;6193720;23;19993;-92
2021/10/04 02:49:48;;;;;;;7.55;1.25;;;13.00;99.90;;;;;;6167263;23;20047;-91
2021/10/04 02:52:16;;;;;;;11.95;2.17;;;13.10;99.90;;;;;;6167489;23;20044;-92
2021/10/04 02:54:43;;;;;;;8.23;1.40;;;13.00;99.90;;;;;;6143183;23;20384;-92
2021/10/04 02:57:08;;;;;;;6.93;1.02;;;13.00;99.90;;;;;;6193604;23;20001;-92
2021/10/04 02:59:34;;;;;;;12.90;2.15;;;13.00;99.90;;;;;;6193721;23;20042;-91
2021/10/04 03:02:00;;;;;;;10.30;1.35;;;13.00;99.90;;;;;;6193403;23;20001;-92
2021/10/04 03:04:26;;;;;;;8.93;1.63;;;13.00;99.90;;;;;;6193520;23;20045;-91
2021/10/04 03:06:51;;;;;;;12.57;1.30;;;13.00;99.90;;;;;;6167057;23;19997;-92
2021/10/04 03:09:17;;;;;;;12.55;2.17;;;13.00;99.90;;;;;;6166423;23;19996;-92
2021/10/04 03:11:43;;;;;;;9.98;1.13;;;13.00;99.90;;;;;;6167471;23;20004;-93
2021/10/04 03:14:09;;;;;;;9.43;1.48;;;13.00;99.90;;;;;;6193931;23;19997;-92
2021/10/04 03:16:35;;;;;;;4.90;1.10;;;13.00;99.90;;;;;;6167333;23;20044;-93
2021/10/04 03:19:00;;;;;;;14.30;2.72;;;13.00;99.90;;;;;;6193469;23;19997;-92
2021/10/04 03:21:26;;;;;;;5.43;1.00;;;13.00;99.90;;;;;;6167250;23;19993;-91
2021/10/04 03:23:52;;;;;;;8.88;1.35;;;13.00;99.90;;;;;;6167412;23;19997;-91
2021/10/04 03:26:18;;;;;;;8.63;1.25;;;13.10;99.90;;;;;;6193396;23;19996;-92
2021/10/04 03:28:43;;;;;;;17.60;1.95;;;13.10;99.90;;;;;;6167265;23;20001;-91
2021/10/04 03:31:09;;;;;;;12.43;1.75;;;13.20;99.90;;;;;;6165888;23;20197;-92
2021/10/04 03:33:35;;;;;;;8.90;1.45;;;13.20;99.90;;;;;;6167223;23;20193;-93
2021/10/04 03:36:02;;;;;;;8.15;1.23;;;13.30;99.90;;;;;;6167039;23;20001;-92
2021/10/04 03:38:27;;;;;;;13.43;1.95;;;13.30;99.90;;;;;;6193956;23;20072;-92
2021/10/04 03:40:53;;;;;;;5.18;1.30;;;13.40;99.90;;;;;;6167644;23;20000;-93
2021/10/04 03:43:19;;;;;;;12.98;1.92;;;13.40;99.90;;;;;;6193458;23;20175;-92
2021/10/04 03:45:45;;;;;;;11.68;1.55;;;13.50;99.90;;;;;;6167418;23;19992;-92
2021/10/04 03:48:10;;;;;;;8.88;1.55;;;13.50;99.90;;;;;;6167424;23;20344;-92
2021/10/04 03:50:36;;;;;;;14.02;1.40;;;13.60;99.90;;;;;;6167093;23;20017;-92
2021/10/04 03:53:02;;;;;;;7.63;1.42;;;13.60;99.90;;;;;;6169424;23;20004;-92
2021/10/04 03:55:28;;;;;;;13.45;1.73;;;13.60;99.90;;;;;;6195306;23;20020;-93
2021/10/04 03:57:54;;;;;;;13.13;1.60;;;13.70;99.90;;;;;;6195158;23;19989;-93
2021/10/04 04:00:24;;;;;;;9.23;1.88;;;13.70;99.90;;;;;;6195343;23;20342;-91
2021/10/04 04:02:50;;;;;;;10.57;1.35;;;13.60;99.90;;;;;;6168817;23;20060;-91
2021/10/04 04:05:18;;;;;;;9.40;2.28;;;13.60;99.90;;;;;;6168619;23;20016;-93
2021/10/04 04:07:44;;;;;;;8.30;1.30;;;13.60;99.90;;;;;;6194842;23;20324;-92
2021/10/04 04:10:12;;;;;;;15.32;1.40;;;13.60;99.90;;;;;;6194869;23;20005;-87
2021/10/04 04:12:39;;;;;;;12.15;1.52;;;13.50;99.90;;;;;;6194999;23;19986;-90
2021/10/04 04:15:06;;;;;;;12.05;1.33;;;13.50;99.90;;;;;;6161137;23;20447;-90
2021/10/04 04:17:32;;;;;;;13.88;1.58;;;13.40;99.90;;;;;;6159103;23;19997;-90
2021/10/04 04:19:58;;;;;;;9.60;1.70;;;13.40;99.90;;;;;;6185264;23;19993;-89
2021/10/04 04:22:24;;;;;;;16.73;3.30;;;13.60;99.90;;;;;;6185007;23;19997;-89
2021/10/04 04:24:50;;;;;;;15.43;1.98;;;13.80;99.90;;;;;;6194891;23;19989;-91
2021/10/04 04:27:16;;;;;;;10.38;1.23;;;13.90;99.90;;;;;;6195262;23;20181;-91
2021/10/04 04:29:42;;;;;;;14.63;1.83;;;14.00;99.90;;;;;;6194855;23;20008;-90
2021/10/04 04:32:10;;;;;;;13.98;1.10;;;14.10;99.90;;;;;;6194464;23;20013;-91
2021/10/04 04:34:37;;;;;;;12.23;1.30;;;14.40;99.90;;;;;;6194298;23;19992;-90
2021/10/04 04:37:04;;;;;;;8.27;1.10;;;14.40;99.90;;;;;;6168052;23;19996;-90
2021/10/04 04:39:31;;;;;;;3.60;0.73;;;14.50;99.90;;;;;;6168611;23;20166;-90
2021/10/04 04:41:57;;;;;;;14.40;1.30;;;14.40;99.90;;;;;;6168227;23;20237;-91
2021/10/04 04:44:23;;;;;;;9.00;1.75;;;14.40;99.90;;;;;;6194370;23;19989;-91
2021/10/04 04:46:50;;;;;;;8.02;0.93;;;14.40;99.90;;;;;;6194188;23;20012;-91
2021/10/04 04:49:19;;;;;;;12.07;1.30;;;14.30;99.90;;;;;;6194451;23;20005;-91
2021/10/04 04:51:45;;;;;;;6.15;1.05;;;14.10;99.90;;;;;;6168137;23;19997;-91
2021/10/04 04:54:11;;;;;;;7.95;1.27;;;14.20;99.90;;;;;;6194207;23;20001;-91
2021/10/04 04:56:37;;;;;;;7.05;1.33;;;14.20;99.90;;;;;;6194335;23;20016;-90
2021/10/04 04:59:03;;;;;;;17.55;1.88;;;14.30;99.90;;;;;;6194011;23;19993;-90
2021/10/04 05:01:29;;;;;;;4.93;1.02;;;14.50;99.90;;;;;;6167706;23;20023;-88
2021/10/04 05:03:55;;;;;;;7.15;1.38;;;14.70;99.90;;;;;;6194018;23;19993;-87
2021/10/04 05:06:20;;;;;;;11.80;1.52;;;14.60;99.90;;;;;;6193866;23;20007;-86
2021/10/04 05:08:46;;;;;;;9.02;1.33;;;14.50;99.90;;;;;;6194097;23;20321;-86
2021/10/04 05:11:12;;;;;;;11.25;1.48;;;14.30;99.90;;;;;;6193638;23;19997;-87
2021/10/04 05:13:37;;;;;;;5.28;1.10;;;14.20;99.90;;;;;;6167552;23;19997;-87
2021/10/04 05:16:03;;;;;;;3.13;0.55;;;14.10;99.90;;;;;;6167433;23;19996;-88
2021/10/04 05:18:29;;;;;;;6.30;0.70;;;14.10;99.90;;;;;;6193641;23;19993;-88
2021/10/04 05:20:55;;;;;;;3.97;0.70;;;14.00;99.90;;;;;;6193452;23;20285;-88
2021/10/04 05:23:21;;;;;;;4.93;0.82;;;13.90;99.90;;;;;;6193810;23;20043;-89
2021/10/04 05:25:47;;;;;;;7.20;0.90;;;13.90;99.90;;;;;;6194093;23;19986;-89
2021/10/04 05:28:13;;;;;;;6.18;1.00;;;13.80;99.90;;;;;;6193814;23;20035;-89
2021/10/04 05:30:38;;;;;;;5.32;1.70;;;13.70;99.90;;;;;;6193967;23;20087;-89
2021/10/04 05:33:04;;;;;;;5.80;0.70;;;13.70;99.90;;;;;;6194095;23;20244;-89
2021/10/04 05:35:30;;;;;;;7.70;0.98;;;13.70;99.90;;;;;;6166888;23;20209;-86
2021/10/04 05:37:56;;;;;;;4.30;1.00;;;13.60;99.90;;;;;;6166816;23;19997;-87
2021/10/04 05:40:22;;;;;;;3.67;0.63;;;13.50;99.90;;;;;;6189694;23;20435;-88
2021/10/04 05:42:47;;;;;;;4.18;1.10;;;13.50;99.90;;;;;;6184376;23;20140;-86
2021/10/04 05:45:15;;;;;;;5.90;1.30;;;13.40;99.90;;;;;;6182193;23;20183;-87
2021/10/04 05:47:41;;;;;;;6.75;1.08;;;13.30;99.90;;;;;;6182185;23;19997;-87
2021/10/04 05:50:08;;;;;;;6.80;1.00;;;13.30;99.90;;;;;;6155415;23;20013;-87
2021/10/04 05:52:35;;;;;;;6.07;1.35;;;13.20;99.90;;;;;;6182006;23;20063;-87
2021/10/04 05:55:01;;;;;;;6.22;0.95;;;13.20;99.90;;;;;;6181922;23;20036;-87
2021/10/04 05:57:27;;;;;;;4.72;0.90;;;13.10;99.90;;;;;;6182227;23;20064;-87
2021/10/04 05:59:53;;;;;;;8.95;1.75;;;13.20;99.90;;;;;;6182289;23;20485;-89
2021/10/04 06:02:18;;;;;;;6.43;1.05;;;13.10;99.90;;;;;;6155447;23;20001;-87
2021/10/04 06:04:44;;;;;;;5.13;1.20;;;13.10;99.90;;;;;;6182199;23;20419;-90
2021/10/04 06:07:09;;;;;;;8.48;1.50;;;13.10;99.90;;;;;;6182050;23;20008;-88
2021/10/04 06:09:35;;;;;;;8.02;1.52;;;13.10;99.90;;;;;;6182834;23;20036;-88
2021/10/04 06:12:01;;;;;;;7.00;1.10;;;13.00;99.90;;;;;;6182153;23;20008;-89
2021/10/04 06:14:27;;;;;;;10.15;2.00;;;13.00;99.90;;;;;;6181695;23;20003;-89
2021/10/04 06:16:55;;;;;;;10.38;1.65;;;13.00;99.90;;;;;;6181884;23;20005;-88
2021/10/04 06:19:21;;;;;;;11.15;2.30;;;13.00;99.90;;;;;;6181974;23;20001;-89
2021/10/04 06:21:48;;;;;;;10.90;1.80;;;13.10;99.90;;;;;;6182248;23;20008;-89
2021/10/04 06:24:13;;;;;;;13.18;2.38;;;13.20;99.90;;;;;;6161273;23;20027;-89
2021/10/04 06:26:39;;;;;;;9.95;1.45;;;13.30;99.90;;;;;;6192413;23;20130;-89
2021/10/04 06:29:05;;;;;;;16.05;2.15;;;13.40;99.90;;;;;;6183895;23;20080;-86
2021/10/04 06:31:30;;;;;;;11.95;2.08;;;13.50;99.90;;;;;;6185231;23;20468;-89
2021/10/04 06:33:56;;;;;;;13.98;2.33;;;13.50;99.90;;;;;;6187890;23;20450;-88
2021/10/04 06:36:22;;;;;;;16.85;2.30;;;13.60;99.90;;;;;;6186087;23;20080;-90
2021/10/04 06:38:48;;;;;;;12.70;2.00;;;13.60;99.90;;;;;;6184861;23;20004;-89
2021/10/04 06:41:14;;;;;;;14.30;1.88;;;13.70;99.90;;;;;;6183470;23;20145;-89
2021/10/04 06:43:42;;;;;;;12.95;2.03;;;13.80;99.90;;;;;;6182115;23;20001;-90
2021/10/04 06:46:08;;;;;;;16.92;2.53;;;13.90;99.90;;;;;;6184843;23;20247;-89
2021/10/04 06:48:38;;;;;;;12.38;2.53;;;13.90;99.90;;;;;;6184780;23;20052;-89
2021/10/04 06:51:05;;;;;;;13.60;2.85;;;13.90;99.90;;;;;;6184807;23;20009;-89
2021/10/04 06:53:32;;;;;;;11.25;1.88;;;13.80;99.90;;;;;;6180192;23;19997;-90
2021/10/04 06:55:57;;;;;;;15.60;2.15;;;13.80;99.90;;;;;;6182564;23;20028;-90
2021/10/04 06:58:23;;;;;;;14.40;2.22;;;13.80;99.90;;;;;;6155673;23;20424;-90
2021/10/04 07:00:49;;;;;;;11.45;2.00;;;13.90;99.90;;;;;;6182206;23;20009;-89
2021/10/04 07:03:14;;;;;;;16.65;2.58;;;13.90;99.90;;;;;;6182551;23;20005;-90
2021/10/04 07:05:42;;;;;;;13.70;2.20;;;13.80;99.90;;;;;;6155055;23;20005;-90
2021/10/04 07:08:08;;;;;;;16.52;2.00;;;13.90;99.90;;;;;;6181991;23;20059;-89
2021/10/04 07:10:34;;;;;;;11.73;2.28;;;14.00;99.90;;;;;;6181642;23;20013;-89
2021/10/04 07:13:00;;;;;;;13.25;2.00;;;14.00;99.90;;;;;;6155443;23;20005;-90
2021/10/04 07:15:26;;;;;;;23.13;3.08;;;14.00;99.90;;;;;;6182014;23;20052;-89
2021/10/04 07:17:51;;;;;;;15.70;2.20;;;14.10;99.90;;;;;;6181978;23;20009;-91
2021/10/04 07:20:17;;;;;;;14.82;2.80;;;14.10;99.90;;;;;;6181714;23;20319;-91
2021/10/04 07:22:43;;;;;;;14.95;2.28;;;14.20;99.90;;;;;;6154597;23;20083;-89
2021/10/04 07:25:10;;;;;;;18.55;2.90;;;14.20;99.90;;;;;;6181855;23;20005;-90
2021/10/04 07:27:36;;;;;;;14.68;2.50;;;14.30;99.90;;;;;;6181844;23;19997;-89
2021/10/04 07:30:03;;;;;;;8.77;1.77;;;14.40;99.90;;;;;;6155017;23;20013;-90
2021/10/04 07:32:29;;;;;;;16.67;2.10;;;14.60;99.90;;;;;;6181902;23;20029;-88
2021/10/04 07:34:54;;;;;;;12.13;1.73;;;14.80;99.90;;;;;;6181977;23;20001;-89
2021/10/04 07:37:20;;;;;;;15.85;1.80;;;14.90;99.90;;;;;;6181820;23;20076;-88
2021/10/04 07:39:46;;;;;;;19.60;2.28;;;15.00;99.90;;;;;;6181715;23;20005;-89
2021/10/04 07:42:11;;;;;;;9.48;1.85;;;15.00;99.90;;;;;;6181673;23;19997;-89
2021/10/04 07:44:37;;;;;;;12.85;1.88;;;15.10;99.90;;;;;;6154879;23;20008;-88
2021/10/04 07:47:03;;;;;;;14.13;2.20;;;15.10;99.90;;;;;;6154906;23;20005;-89
2021/10/04 07:49:30;;;;;;;14.93;2.10;;;15.10;99.90;;;;;;6181708;23;20076;-89
2021/10/04 07:51:57;;;;;;;13.18;2.40;;;15.20;99.90;;;;;;6181393;23;20005;-89
2021/10/04 07:54:22;;;;;;;15.02;2.47;;;15.30;99.90;;;;;;6155062;23;20008;-89
2021/10/04 07:56:48;;;;;;;19.50;2.28;;;15.30;99.90;;;;;;6181318;23;20009;-89
2021/10/04 07:59:14;;;;;;;16.65;2.47;;;15.40;99.90;;;;;;6181376;23;20008;-89
2021/10/04 08:01:39;;;;;;;9.82;2.17;;;15.50;99.90;;;;;;6181284;23;20013;-88
2021/10/04 08:04:05;;;;;;;13.00;1.90;;;15.70;99.90;;;;;;6181223;23;19997;-88
2021/10/04 08:06:31;;;;;;;12.95;1.85;;;15.80;99.90;;;;;;6181695;23;20001;-88
2021/10/04 08:08:56;;;;;;;9.10;1.70;;;16.00;99.90;;;;;;6155235;23;20084;-89
2021/10/04 08:11:23;;;;;;;12.30;2.13;;;16.00;99.90;;;;;;6155032;23;20013;-89
2021/10/04 08:13:50;;;;;;;15.65;2.00;;;16.00;99.90;;;;;;6154918;23;20087;-88
2021/10/04 08:16:21;;;;;;;16.52;3.15;;;16.00;99.90;;;;;;6181135;23;20431;-89
2021/10/04 08:18:48;;;;;;;12.50;2.20;;;16.10;99.90;;;;;;6181297;23;20002;-89
2021/10/04 08:21:16;;;;;;;16.98;2.28;;;16.20;99.90;;;;;;6181489;23;20008;-88
2021/10/04 08:23:42;;;;;;;12.23;1.40;;;16.20;99.90;;;;;;6181200;23;20296;-88
2021/10/04 08:26:08;;;;;;;18.67;2.47;;;16.20;99.90;;;;;;6181176;23;20005;-88
2021/10/04 08:28:34;;;;;;;12.13;1.70;;;16.30;99.90;;;;;;6181407;23;20001;-87
2021/10/04 08:30:59;;;;;;;14.38;1.88;;;16.30;99.90;;;;;;6180830;23;20064;-88
2021/10/04 08:33:25;;;;;;;12.95;2.17;;;16.20;99.90;;;;;;6180909;23;20005;-87
2021/10/04 08:35:51;;;;;;;18.48;2.10;;;16.10;99.90;;;;;;6154972;23;20075;-87
2021/10/04 08:38:16;;;;;;;13.48;1.58;;;15.90;99.90;;;;;;6156485;23;20008;-88
2021/10/04 08:40:42;;;;;;;12.50;1.77;;;15.80;99.90;;;;;;6182732;23;20436;-88
2021/10/04 08:43:08;;;;;;;14.77;1.25;;;15.70;99.90;;;;;;6183055;23;20438;-87
2021/10/04 08:45:36;;;;;;;14.05;2.03;;;15.70;99.90;;;;;;6182747;23;20005;-87
2021/10/04 08:48:02;;;;;;;12.73;1.67;;;15.80;99.90;;;;;;6156610;23;20036;-87
2021/10/04 08:50:31;;;;;;;23.85;2.03;;;15.70;99.90;;;;;;6156480;23;20017;-87
2021/10/04 08:53:02;;;;;;;12.35;2.08;;;15.70;99.90;;;;;;6182974;23;20056;-88
2021/10/04 08:55:28;;;;;;;13.30;1.48;;;15.80;99.90;;;;;;6182603;23;20001;-87
2021/10/04 08:57:53;;;;;;;12.07;2.05;;;15.80;99.90;;;;;;6183613;23;20001;-87
2021/10/04 09:00:19;;;;;;;13.82;1.65;;;15.90;99.90;;;;;;6182918;23;20021;-87
2021/10/04 09:02:47;;;;;;;7.57;1.55;;;16.10;99.90;;;;;;6156393;23;20005;-88
2021/10/04 09:05:26;;;;;;;10.48;1.42;;;16.30;99.90;;;;;;6156285;23;20329;-87
2021/10/04 09:08:00;;;;;;;7.50;0.77;;;16.40;99.90;;;;;;6156524;23;20005;-88
2021/10/04 09:10:32;;;;;;;9.13;1.00;;;16.50;99.90;;;;;;6182904;23;20019;-89
2021/10/04 09:13:09;;;;;;;6.68;0.90;;;16.70;99.90;;;;;;6156716;23;20005;-88
2021/10/04 09:15:35;;;;;;;10.25;0.90;;;16.80;99.90;;;;;;6182625;23;20383;-88
2021/10/04 09:18:08;;;;;;;8.90;0.80;;;16.90;99.90;;;;;;6156468;23;20020;-87
2021/10/04 09:21:09;;;;;;;6.93;1.33;;;16.80;99.90;;;;;;6182641;23;20331;-88
2021/10/04 09:23:56;;;;;;;7.05;1.10;;;16.80;99.90;;;;;;6032935;23;20007;-88
2021/10/04 09:26:24;;;;;;;14.32;1.40;;;16.80;99.90;;;;;;6147095;23;20434;-88
2021/10/04 09:28:57;;;;;;;10.93;1.27;;;16.80;99.90;;;;;;6182625;23;20077;-88
2021/10/04 09:31:24;;;;;;;10.95;1.30;;;16.90;99.90;;;;;;6182331;23;20345;-88
2021/10/04 09:34:04;;;;;;;10.68;1.08;;;16.90;99.90;;;;;;6182726;23;20032;-89
2021/10/04 09:36:44;;;;;;;11.52;1.05;;;16.90;99.90;;;;;;6182736;23;20039;-89
2021/10/04 09:39:22;;;;;;;11.02;1.10;;;17.00;99.90;;;;;;6183332;23;20009;-88
2021/10/04 09:42:02;;;;;;;10.05;1.30;;;17.10;99.90;;;;;;6156318;23;20009;-88
2021/10/04 09:44:43;;;;;;;8.52;1.25;;;17.10;99.90;;;;;;6183169;23;20005;-88
2021/10/04 09:47:26;;;;;;;8.40;1.65;;;17.00;99.90;;;;;;6182931;23;20126;-89
2021/10/04 09:50:12;;;;;;;10.00;1.38;;;17.10;99.90;;;;;;6182625;23;20009;-89
2021/10/04 09:52:37;;;;;;;12.40;2.15;;;17.20;99.90;;;;;;6182943;23;20052;-87
2021/10/04 09:55:16;;;;;;;9.40;1.10;;;17.20;99.90;;;;;;6182983;23;20067;-88
2021/10/04 09:57:42;;;;;;;11.88;1.33;;;17.00;99.90;;;;;;6182820;23;20000;-87
2021/10/04 10:00:08;;;;;;;11.73;1.88;;;17.00;99.90;;;;;;6183203;23;20017;-88
2021/10/04 10:02:34;;;;;;;15.70;1.50;;;17.10;99.90;;;;;;6183054;23;20230;-89
2021/10/04 10:05:01;;;;;;;8.48;1.50;;;17.40;99.90;;;;;;6183002;23;20612;-89
2021/10/04 10:07:27;;;;;;;17.42;1.98;;;17.60;99.90;;;;;;6183025;23;19997;-89
2021/10/04 10:09:53;;;;;;;8.43;1.20;;;17.70;99.90;;;;;;6182581;23;20172;-88
2021/10/04 10:12:19;;;;;;;4.53;0.80;;;17.60;99.90;;;;;;6183025;23;20316;-89
2021/10/04 10:14:46;;;;;;;7.10;1.17;;;17.50;99.90;;;;;;6156210;23;20012;-89
2021/10/04 10:17:22;;;;;;;6.63;1.20;;;17.40;99.90;;;;;;6182829;23;20008;-88
2021/10/04 10:19:49;;;;;;;8.00;1.30;;;17.30;99.90;;;;;;6183643;23;20005;-89
2021/10/04 10:22:17;;;;;;;6.30;1.17;;;17.40;99.90;;;;;;6156438;23;20012;-89
2021/10/04 10:24:45;;;;;;;8.23;1.80;;;17.50;99.90;;;;;;6155764;23;20035;-89
2021/10/04 10:27:12;;;;;;;7.57;1.20;;;17.60;99.90;;;;;;6182774;23;20008;-88
2021/10/04 10:29:39;;;;;;;9.77;1.42;;;17.60;99.90;;;;;;6155913;23;20017;-87
2021/10/04 10:32:07;;;;;;;8.77;1.25;;;17.70;99.90;;;;;;6155972;23;20001;-88
2021/10/04 10:34:37;;;;;;;13.18;1.90;;;17.90;99.90;;;;;;6155832;23;20005;-88
2021/10/04 10:37:15;;;;;;;9.50;1.30;;;18.10;99.90;;;;;;6183034;23;20032;-87
2021/10/04 10:39:42;;;;;;;8.73;1.23;;;18.20;99.90;;;;;;6155997;23;20016;-88
2021/10/04 10:42:26;;;;;;;11.40;1.13;;;18.30;99.90;;;;;;6156012;23;20485;-89
2021/10/04 10:44:58;;;;;;;8.43;1.13;;;18.30;99.90;;;;;;6182663;23;20215;-87
2021/10/04 10:47:36;;;;;;;16.58;2.47;;;18.30;99.90;;;;;;6180438;23;20008;-87
2021/10/04 10:50:14;;;;;;;13.60;1.83;;;18.40;99.90;;;;;;6181743;23;20071;-87
2021/10/04 10:52:41;;;;;;;14.25;2.45;;;18.60;99.90;;;;;;6182046;23;20001;-87
2021/10/04 10:55:19;;;;;;;11.45;1.77;;;18.60;99.90;;;;;;6182346;23;20005;-86
2021/10/04 10:57:50;;;;;;;9.90;1.48;;;18.70;99.90;;;;;;6182392;23;20257;-87
2021/10/04 11:00:23;;;;;;;11.23;1.75;;;18.80;99.90;;;;;;6181748;23;20045;-88
2021/10/04 11:02:54;;;;;;;8.38;1.48;;;18.90;99.90;;;;;;6182829;23;20098;-88
2021/10/04 11:05:38;;;;;;;13.38;2.10;;;19.10;99.90;;;;;;6182400;23;20029;-88
2021/10/04 11:08:24;;;;;;;12.25;1.65;;;19.10;99.90;;;;;;6188046;23;19989;-87
2021/10/04 11:10:49;;;;;;;7.28;1.15;;;19.30;99.90;;;;;;6183403;23;20009;-88
2021/10/04 11:13:15;;;;;;;9.35;1.55;;;19.60;99.90;;;;;;6182041;23;20008;-87
2021/10/04 11:15:42;;;;;;;9.80;1.45;;;19.80;99.90;;;;;;6182316;23;20009;-88
2021/10/04 11:18:11;;;;;;;9.45;1.20;;;19.80;99.90;;;;;;6182229;23;20048;-88
2021/10/04 11:20:37;;;;;;;10.25;1.50;;;19.50;99.90;;;;;;6182035;23;20001;-88
2021/10/04 11:23:13;;;;;;;17.05;2.58;;;19.20;99.90;;;;;;6155497;23;20019;-87
2021/10/04 11:25:40;;;;;;;16.60;2.30;;;18.70;99.90;;;;;;6181570;23;20537;-88
2021/10/04 11:28:06;;;;;;;14.38;2.03;;;18.20;99.90;;;;;;6154426;23;20032;-87
2021/10/04 11:31:00;;;;;;;17.73;2.80;;;18.00;99.90;;;;;;6180775;23;20024;-87
2021/10/04 11:33:30;;;;;;;16.40;3.20;;;18.00;99.90;;;;;;6154401;23;20439;-87
2021/10/04 11:36:02;;;;;;;15.32;2.55;;;17.90;99.90;;;;;;6181079;23;20001;-87
2021/10/04 11:38:31;;;;;;;19.80;2.92;;;17.70;99.90;;;;;;6181195;23;20084;-87
2021/10/04 11:40:57;;;;;;;15.30;2.45;;;17.70;99.90;;;;;;6182366;23;20420;-87
2021/10/04 11:43:23;;;;;;;12.93;2.10;;;17.90;99.90;;;;;;6182263;23;20037;-88
2021/10/04 11:45:50;;;;;;;17.83;3.00;;;18.10;99.90;;;;;;6182516;23;20073;-88
2021/10/04 11:48:36;;;;;;;12.00;1.90;;;18.30;99.90;;;;;;6182141;23;20001;-88
2021/10/04 11:51:04;;;;;;;16.05;1.85;;;18.50;99.90;;;;;;6181621;23;20099;-87
2021/10/04 11:53:30;;;;;;;13.23;2.35;;;18.60;99.90;;;;;;6155828;23;20001;-87
2021/10/04 11:55:59;;;;;;;13.90;1.83;;;18.50;99.90;;;;;;6182092;23;20017;-87
2021/10/04 11:58:26;;;;;;;17.45;2.10;;;18.30;99.90;;;;;;6182328;23;20001;-90
2021/10/04 12:00:52;;;;;;;31.58;3.55;;;18.20;99.90;;;;;;6157238;23;20032;-89
2021/10/04 12:03:29;;;;;;;26.58;3.25;;;17.00;99.90;;;;;;6155506;23;20409;-90
2021/10/04 12:05:56;;;;;;;25.23;3.10;;;16.20;99.90;;;;;;6155112;23;20326;-86
2021/10/04 12:08:23;;;;;;;26.88;3.20;;;16.00;99.90;;;;;;6181641;23;20012;-86
2021/10/04 12:10:57;;;;;;;17.58;2.58;;;15.90;99.90;;;;;;6181601;23;20251;-86
2021/10/04 12:13:24;;;;;;;;;;;16.00;99.90;;;;;;6183800;23;20217;-86
2021/10/04 12:15:52;;;;;;;24.20;3.42;;;16.00;99.90;;;;;;6184202;23;20452;-86
2021/10/04 12:18:20;;;;;;;27.20;3.60;;;16.10;99.90;;;;;;6183995;23;20001;-90
2021/10/04 12:20:48;;;;;;;17.52;2.38;;;16.30;99.90;;;;;;6158013;23;20005;-94
2021/10/04 12:23:21;;;;;;;16.75;2.42;;;16.40;99.90;;;;;;6184921;23;20005;-96
2021/10/04 12:29:35;;;;;;;11.85;2.03;;;16.70;99.90;;;;;;6045452;23;20510;-93
2021/10/04 12:32:22;;;;;;;18.50;2.35;;;16.90;99.90;;;;;;6153469;23;20021;-92
2021/10/04 12:35:01;;;;;;;10.43;1.60;;;17.20;99.90;;;;;;6165853;23;20033;-92
2021/10/04 12:37:32;;;;;;;16.58;2.42;;;17.30;99.90;;;;;;6191743;23;20013;-94
2021/10/04 12:40:00;;;;;;;12.90;2.22;;;17.40;99.90;;;;;;6183912;23;20071;-92
2021/10/04 12:42:28;;;;;;;12.60;1.88;;;17.60;99.90;;;;;;6157739;23;20005;-92
2021/10/04 12:44:55;;;;;;;16.17;2.58;;;17.70;99.90;;;;;;6157537;23;20055;-91
2021/10/04 12:47:21;;;;;;;13.20;1.45;;;17.80;99.90;;;;;;6183790;23;20001;-90